Time;durP1;ratioP1;P1;durP2;ratioP2;P2;SDS_P1;SDS_P2;PMS_P1;PMS_P2;Temp;Humidity;BMP_temperature;BMP_pressure;BME280_temperature;BME280_humidity;BME280_pressure;Samples;Min_cycle;Max_cycle;Signal;HPM_P1;HPM_P2
2022/11/25 00:01:27;;;;;;;3.33;1.77;;;;;;;4.40;67.39;93693.75;4964729;28;20030;-90
2022/11/25 00:03:55;;;;;;;5.43;1.98;;;;;;;4.37;66.91;93715.41;4965909;28;20030;-93
2022/11/25 00:06:23;;;;;;;2.40;1.75;;;;;;;4.37;66.31;93685.59;4964830;28;20023;-90
2022/11/25 00:09:10;;;;;;;5.72;1.80;;;;;;;4.40;65.88;93698.25;4965704;28;20034;-90
2022/11/25 00:11:38;;;;;;;5.55;1.60;;;;;;;4.37;65.80;93710.13;4965897;28;20026;-90
2022/11/25 00:14:04;;;;;;;3.35;1.63;;;;;;;4.39;66.48;93707.22;4964766;28;20111;-90
2022/11/25 00:16:30;;;;;;;5.30;2.08;;;;;;;4.36;66.08;93699.88;4996795;28;20067;-91
2022/11/25 00:18:56;;;;;;;2.53;1.17;;;;;;;4.32;66.10;93696.22;4964527;28;20027;-91
2022/11/25 00:21:28;;;;;;;4.10;1.92;;;;;;;4.36;66.39;93713.06;4965923;28;20094;-90
2022/11/25 00:23:55;;;;;;;;;;;;;;;4.31;66.59;93710.44;4965905;28;20019;-90
2022/11/25 00:26:28;;;;;;;3.15;1.52;;;;;;;4.22;66.82;93718.19;4965509;28;19906;-93
2022/11/25 00:28:57;;;;;;;4.65;1.90;;;;;;;4.20;67.16;93736.13;4965967;28;20035;-92
2022/11/25 00:31:43;;;;;;;2.95;1.75;;;;;;;4.19;68.05;93711.63;4965742;28;20019;-93
2022/11/25 00:34:13;;;;;;;8.82;2.72;;;;;;;4.11;68.27;93717.47;4965790;28;20777;-92
2022/11/25 01:11:43;;;;;;;3.92;2.10;;;;;;;4.22;67.92;93718.19;4748475;30;20040;-92
2022/11/25 01:14:08;;;;;;;3.63;2.08;;;;;;;4.24;68.27;93717.91;4777503;29;20040;-92
2022/11/25 01:16:34;;;;;;;5.80;1.90;;;;;;;4.28;67.78;93732.91;4867956;29;20048;-92
2022/11/25 01:19:00;;;;;;;4.18;1.90;;;;;;;4.27;67.70;93727.91;4957698;28;20039;-92
2022/11/25 01:21:32;;;;;;;3.80;2.20;;;;;;;4.31;67.51;93715.72;4967768;28;20027;-92
2022/11/25 01:24:02;;;;;;;5.82;2.05;;;;;;;4.37;67.13;93722.53;4969161;28;20015;-93
2022/11/25 01:26:37;;;;;;;3.47;1.73;;;;;;;4.35;66.50;93712.25;4969002;28;20019;-93
2022/11/25 01:29:46;;;;;;;;;;;;;;;;;;;;;
2022/11/25 01:32:53;;;;;;;3.33;1.58;;;;;;;4.40;66.51;93720.13;4999538;28;20094;-92
2022/11/25 01:39:49;;;;;;;;;;;;;;;;;;;;;
2022/11/25 01:42:16;;;;;;;2.83;1.60;;;;;;;4.48;64.23;93687.09;4972723;28;20043;-93
2022/11/25 01:45:48;;;;;;;3.28;1.60;;;;;;;4.49;63.48;93691.28;4964134;28;20023;-93
2022/11/25 01:58:51;;;;;;;4.45;1.70;;;;;;;4.76;61.18;93676.75;4929336;29;20036;-94
2022/11/25 02:01:20;;;;;;;1.63;1.02;;;;;;;4.79;61.66;93658.50;4928566;29;20117;-91
2022/11/25 02:03:49;;;;;;;4.00;1.40;;;;;;;4.75;61.59;93669.91;4928349;29;20060;-91
2022/11/25 02:06:23;;;;;;;3.65;1.13;;;;;;;4.74;61.73;93676.25;4962845;28;20058;-91
2022/11/25 02:12:58;;;;;;;2.67;1.52;;;;;;;4.81;61.73;93684.63;4969802;28;20050;-94
2022/11/25 02:15:24;;;;;;;3.03;1.08;;;;;;;4.76;61.66;93679.41;4967671;28;20023;-90
2022/11/25 02:17:50;;;;;;;3.35;1.38;;;;;;;4.83;62.19;93691.19;4967844;28;20027;-90
2022/11/25 02:20:20;;;;;;;2.10;1.13;;;;;;;4.82;61.92;93680.91;4967856;28;20027;-90
2022/11/25 02:23:07;;;;;;;2.75;1.55;;;;;;;4.69;61.99;93702.72;4967776;28;20099;-90
2022/11/25 02:25:36;;;;;;;4.45;1.20;;;;;;;4.64;62.19;93693.00;4967970;28;20031;-90
2022/11/25 02:28:09;;;;;;;3.58;1.30;;;;;;;4.62;61.18;93690.63;4967633;28;20027;-90
2022/11/25 02:30:35;;;;;;;2.67;1.42;;;;;;;4.66;61.49;93690.06;4967100;28;20020;-90
2022/11/25 02:33:01;;;;;;;7.45;1.33;;;;;;;4.66;60.67;93695.34;4967676;28;20026;-89
2022/11/25 02:35:32;;;;;;;3.75;1.33;;;;;;;4.71;60.41;93703.22;4967668;28;20031;-90
2022/11/25 02:38:06;;;;;;;1.85;1.05;;;;;;;4.66;61.07;93705.91;4967556;28;20034;-90
2022/11/25 02:40:36;;;;;;;2.33;1.38;;;;;;;4.65;61.22;93696.44;4967359;28;20050;-90
2022/11/25 02:43:01;;;;;;;2.08;1.30;;;;;;;4.68;60.77;93709.06;4967464;28;20027;-89
2022/11/25 02:45:36;;;;;;;2.33;1.17;;;;;;;4.62;61.15;93705.69;4968070;28;20233;-90
2022/11/25 02:48:01;;;;;;;3.88;1.05;;;;;;;4.61;61.43;93696.97;4967364;28;20023;-90
2022/11/25 02:50:27;;;;;;;4.20;1.40;;;;;;;4.55;62.28;93708.66;4967437;28;20019;-89
2022/11/25 02:52:52;;;;;;;2.78;1.30;;;;;;;4.51;62.65;93705.00;4966019;28;20027;-90
2022/11/25 02:55:18;;;;;;;4.18;1.73;;;;;;;4.41;63.04;93700.59;4967457;28;20026;-89
2022/11/25 02:57:43;;;;;;;1.67;1.10;;;;;;;4.47;63.62;93709.25;4967212;28;20023;-90
2022/11/25 03:00:09;;;;;;;4.82;1.58;;;;;;;4.48;63.90;93697.63;4967304;28;20070;-90
2022/11/25 03:02:35;;;;;;;4.57;1.50;;;;;;;4.48;64.02;93716.13;4967210;28;20027;-91
2022/11/25 03:05:00;;;;;;;2.25;1.38;;;;;;;4.49;64.42;93720.31;4967416;28;20023;-90
2022/11/25 03:07:26;;;;;;;3.67;1.48;;;;;;;4.47;64.21;93703.19;4967201;28;20340;-90
2022/11/25 03:09:51;;;;;;;3.13;1.77;;;;;;;4.48;64.96;93716.13;4967104;28;20377;-91
2022/11/25 03:12:20;;;;;;;3.45;1.73;;;;;;;4.46;64.83;93722.72;4967168;28;20023;-90
2022/11/25 03:14:46;;;;;;;3.00;1.60;;;;;;;4.40;65.45;93724.63;4966257;28;20321;-89
2022/11/25 03:17:12;;;;;;;3.28;1.80;;;;;;;4.36;65.58;93718.34;4966630;28;20102;-89
2022/11/25 03:19:38;;;;;;;3.35;1.90;;;;;;;4.36;65.91;93720.97;4966935;28;20039;-90
2022/11/25 03:22:04;;;;;;;2.15;1.50;;;;;;;4.40;66.08;93738.59;4965733;28;20031;-89
2022/11/25 03:24:32;;;;;;;3.60;1.70;;;;;;;4.37;66.38;93722.53;4966719;28;20046;-90
2022/11/25 03:26:58;;;;;;;3.05;1.58;;;;;;;4.38;66.51;93729.41;4966726;28;20042;-90
2022/11/25 03:29:24;;;;;;;3.72;1.75;;;;;;;4.33;67.26;93738.13;4966584;28;20023;-90
2022/11/25 03:31:49;;;;;;;3.65;1.70;;;;;;;4.35;67.18;93732.56;4966728;28;20055;-91
2022/11/25 03:34:15;;;;;;;5.20;1.58;;;;;;;4.28;68.19;93747.94;4966859;28;20315;-91
2022/11/25 03:36:40;;;;;;;3.55;1.88;;;;;;;4.25;68.23;93751.91;4965660;28;20031;-90
2022/11/25 03:46:18;;;;;;;3.20;1.48;;;;;;;4.22;69.07;93755.13;4969789;28;20083;-95
2022/11/25 03:48:43;;;;;;;3.45;1.67;;;;;;;4.14;69.14;93745.94;4966897;28;20023;-91
2022/11/25 03:51:36;;;;;;;3.45;1.40;;;;;;;4.12;69.25;93739.38;4966253;28;20038;-92
2022/11/25 03:54:02;;;;;;;3.40;1.30;;;;;;;4.05;69.22;93742.31;4966473;28;20030;-92
2022/11/25 03:56:28;;;;;;;2.42;1.40;;;;;;;4.10;69.29;93750.19;4966161;28;20026;-92
2022/11/25 03:58:53;;;;;;;2.55;1.40;;;;;;;4.11;69.20;93748.31;4966033;28;20023;-93
2022/11/25 04:01:21;;;;;;;1.77;1.13;;;;;;;4.03;69.24;93768.19;4966137;28;20214;-93
2022/11/25 04:03:46;;;;;;;2.70;1.50;;;;;;;4.02;69.45;93767.38;4966135;28;20097;-93
2022/11/25 04:06:14;;;;;;;2.40;1.20;;;;;;;4.02;69.38;93772.66;4966054;28;20026;-94
2022/11/25 04:08:41;;;;;;;1.85;1.23;;;;;;;4.03;69.12;93765.53;4965063;28;20023;-93
2022/11/25 04:11:06;;;;;;;2.60;1.23;;;;;;;4.02;68.99;93780.56;4966252;28;20023;-93
2022/11/25 04:13:33;;;;;;;2.75;1.17;;;;;;;3.98;68.86;93776.13;4965900;28;20335;-93
2022/11/25 04:15:59;;;;;;;2.58;1.20;;;;;;;4.00;69.21;93787.94;4964585;28;20080;-93
2022/11/25 04:18:27;;;;;;;3.20;1.17;;;;;;;3.98;69.23;93786.66;4966014;28;20023;-93
2022/11/25 04:20:55;;;;;;;2.55;1.20;;;;;;;3.98;69.43;93784.81;4964896;28;20035;-93
2022/11/25 04:23:21;;;;;;;1.85;1.13;;;;;;;3.94;69.37;93775.06;4965770;28;20030;-93
2022/11/25 04:25:49;;;;;;;1.38;1.05;;;;;;;3.90;69.27;93774.06;4965847;28;20027;-92
2022/11/25 04:28:15;;;;;;;1.65;1.08;;;;;;;3.86;69.48;93781.72;4965777;28;20030;-93
2022/11/25 04:30:40;;;;;;;2.08;0.95;;;;;;;3.89;69.68;93777.72;4964851;28;20127;-92
2022/11/25 04:33:08;;;;;;;3.35;1.20;;;;;;;3.84;70.05;93785.69;4965620;28;20066;-92
2022/11/25 04:35:36;;;;;;;2.00;1.30;;;;;;;3.84;69.77;93786.47;4965843;28;20042;-93
2022/11/25 04:38:04;;;;;;;1.85;1.20;;;;;;;3.88;69.54;93792.00;4965748;28;20030;-93
2022/11/25 04:40:30;;;;;;;2.60;1.40;;;;;;;3.88;69.40;93802.53;4964241;28;20081;-91
2022/11/25 04:42:55;;;;;;;1.88;1.00;;;;;;;3.90;69.03;93800.41;4965551;28;20023;-91
2022/11/25 04:45:21;;;;;;;2.40;1.42;;;;;;;3.88;69.24;93792.00;4965412;28;20019;-91
2022/11/25 04:47:46;;;;;;;1.77;1.00;;;;;;;3.93;68.85;93794.59;4965502;28;20033;-90
2022/11/25 04:50:20;;;;;;;3.47;1.88;;;;;;;3.87;69.05;93804.41;4965318;28;20042;-91
2022/11/25 04:52:46;;;;;;;2.55;1.23;;;;;;;3.94;69.11;93801.44;4965017;28;20030;-91
2022/11/25 04:55:11;;;;;;;2.22;1.23;;;;;;;3.92;68.87;93796.44;4964481;28;20178;-90
2022/11/25 04:57:37;;;;;;;2.95;1.42;;;;;;;3.97;68.78;93822.00;4965286;28;20050;-90
2022/11/25 05:00:03;;;;;;;3.45;1.60;;;;;;;3.98;68.98;93821.72;4964161;28;20042;-90
2022/11/25 05:02:29;;;;;;;3.15;1.20;;;;;;;3.93;68.64;93828.88;4948367;29;20050;-90
2022/11/25 05:04:56;;;;;;;3.35;1.13;;;;;;;3.94;68.48;93827.81;4964958;28;20026;-91
2022/11/25 05:07:23;;;;;;;1.77;1.02;;;;;;;3.98;67.95;93836.75;4965044;28;20094;-91
2022/11/25 05:09:49;;;;;;;2.75;1.13;;;;;;;3.99;68.01;93838.34;4965180;28;20443;-90
2022/11/25 05:12:21;;;;;;;1.85;1.13;;;;;;;4.02;68.16;93854.41;4965026;28;20030;-89
2022/11/25 05:14:48;;;;;;;2.08;1.30;;;;;;;4.00;67.04;93855.75;4964980;28;20114;-90
2022/11/25 05:17:16;;;;;;;1.92;0.80;;;;;;;4.00;66.50;93851.25;4963884;28;20051;-90
2022/11/25 05:19:42;;;;;;;1.88;1.00;;;;;;;4.05;66.10;93868.09;4964789;28;20102;-90
2022/11/25 05:22:11;;;;;;;2.90;1.15;;;;;;;4.06;66.24;93862.56;4965259;28;20070;-90
2022/11/25 05:24:37;;;;;;;3.88;0.93;;;;;;;4.06;65.68;93861.78;4965464;28;20027;-91
2022/11/25 05:27:03;;;;;;;2.22;1.52;;;;;;;4.00;66.08;93880.25;4965021;28;20046;-91
2022/11/25 05:29:28;;;;;;;2.47;1.33;;;;;;;4.04;65.58;93871.81;4965148;28;20034;-89
2022/11/25 05:31:54;;;;;;;2.13;1.00;;;;;;;4.09;65.46;93882.34;4964816;28;20050;-90
2022/11/25 05:34:19;;;;;;;1.58;0.98;;;;;;;4.09;65.54;93891.06;4963939;28;20054;-90
2022/11/25 05:36:44;;;;;;;2.53;1.10;;;;;;;4.08;65.07;93886.81;4964811;28;20030;-89
2022/11/25 05:39:10;;;;;;;3.05;1.00;;;;;;;4.08;65.35;93897.38;4964835;28;20070;-90
2022/11/25 05:41:35;;;;;;;2.30;1.10;;;;;;;4.07;65.20;93895.81;4964975;28;20058;-91
2022/11/25 05:44:01;;;;;;;1.83;1.15;;;;;;;4.14;65.78;93898.94;4965300;28;20051;-91
2022/11/25 05:46:26;;;;;;;2.15;1.17;;;;;;;4.15;65.84;93910.25;4964798;28;20303;-89
2022/11/25 05:48:54;;;;;;;2.22;1.20;;;;;;;4.13;65.18;93915.84;4964442;28;20030;-86
2022/11/25 05:51:20;;;;;;;2.22;1.38;;;;;;;4.16;65.14;93910.00;4964012;28;20023;-86
2022/11/25 05:53:46;;;;;;;1.67;0.95;;;;;;;4.20;65.48;93899.69;4963105;28;20118;-86
2022/11/25 05:56:11;;;;;;;1.83;1.08;;;;;;;4.16;65.04;93906.56;4964117;28;20057;-86
2022/11/25 05:58:37;;;;;;;2.33;1.27;;;;;;;4.19;64.28;93929.75;4964676;28;20035;-89
2022/11/25 06:01:10;;;;;;;2.83;1.40;;;;;;;4.20;63.92;93907.63;4964110;28;20062;-89
2022/11/25 06:03:36;;;;;;;2.67;1.10;;;;;;;4.24;63.78;93921.06;4963225;28;20037;-89
2022/11/25 06:06:02;;;;;;;2.45;1.27;;;;;;;4.24;64.12;93921.06;4966064;28;20027;-86
2022/11/25 06:08:27;;;;;;;2.60;1.35;;;;;;;4.26;63.76;93925.00;4967372;28;20019;-87
2022/11/25 06:10:53;;;;;;;2.78;1.60;;;;;;;4.32;64.11;93917.84;4967529;28;20388;-87
2022/11/25 06:13:19;;;;;;;5.32;1.67;;;;;;;4.30;64.05;93928.66;4967426;28;20019;-87
2022/11/25 06:15:45;;;;;;;2.65;1.17;;;;;;;4.33;63.77;93928.13;4998433;28;20062;-87
2022/11/25 06:18:12;;;;;;;2.45;1.20;;;;;;;4.39;63.77;93944.72;4966293;28;20026;-86
2022/11/25 06:20:38;;;;;;;2.05;1.10;;;;;;;4.34;63.81;93939.47;4967353;28;20027;-87
2022/11/25 06:23:04;;;;;;;4.30;1.45;;;;;;;4.29;64.07;93939.50;4967350;28;20037;-87
2022/11/25 06:25:30;;;;;;;1.40;1.15;;;;;;;4.31;63.78;93942.66;4966203;28;20031;-87
2022/11/25 06:27:55;;;;;;;2.00;1.30;;;;;;;4.39;63.59;93965.81;4967582;28;20027;-87
2022/11/25 06:30:21;;;;;;;2.45;1.45;;;;;;;4.40;63.29;93960.28;4967356;28;20026;-87
2022/11/25 06:32:47;;;;;;;2.15;1.10;;;;;;;4.39;62.60;93961.34;4967778;28;20027;-93
2022/11/25 06:35:13;;;;;;;2.38;1.35;;;;;;;4.42;62.75;93979.28;4967625;28;20062;-89
2022/11/25 06:37:42;;;;;;;2.50;1.23;;;;;;;4.36;62.18;93969.81;4967845;28;20023;-90
2022/11/25 06:40:08;;;;;;;2.63;1.17;;;;;;;4.33;62.47;93967.69;4967476;28;20027;-89
2022/11/25 06:42:34;;;;;;;2.63;1.35;;;;;;;4.41;62.62;93963.72;4967892;28;20046;-90
2022/11/25 06:44:59;;;;;;;2.67;1.25;;;;;;;4.49;62.34;93968.41;4967472;28;20369;-89
2022/11/25 06:47:25;;;;;;;2.83;1.40;;;;;;;4.45;62.28;93964.75;4967564;28;20095;-90
2022/11/25 06:49:51;;;;;;;1.92;1.15;;;;;;;4.50;62.33;93971.84;4966385;28;20026;-90
2022/11/25 06:52:16;;;;;;;2.58;1.40;;;;;;;4.50;62.41;93962.09;4966605;28;20027;-90
2022/11/25 06:54:42;;;;;;;2.50;1.38;;;;;;;4.51;62.39;93995.34;4998831;28;20037;-90
2022/11/25 06:57:08;;;;;;;5.13;1.95;;;;;;;4.50;63.20;93972.66;4966637;28;20396;-90
2022/11/25 06:59:34;;;;;;;3.20;1.38;;;;;;;4.52;62.26;93981.09;4967357;28;20027;-88
2022/11/25 07:02:00;;;;;;;2.88;1.60;;;;;;;4.59;62.68;93970.22;4967006;28;20269;-88
2022/11/25 07:04:25;;;;;;;8.45;1.60;;;;;;;4.59;62.79;93973.66;4967377;28;20031;-91
2022/11/25 07:06:51;;;;;;;4.97;1.75;;;;;;;4.67;62.04;93982.06;4967221;28;20027;-88
2022/11/25 07:09:18;;;;;;;2.63;1.45;;;;;;;4.69;62.01;93982.59;4966722;28;20023;-90
2022/11/25 07:11:54;;;;;;;2.60;1.40;;;;;;;4.75;61.78;93998.13;4966992;28;20034;-90
2022/11/25 07:14:20;;;;;;;3.03;1.40;;;;;;;4.77;61.33;93993.34;4967819;28;20042;-91
2022/11/25 07:16:45;;;;;;;2.75;1.40;;;;;;;4.77;61.18;93997.84;4965621;28;20102;-88
2022/11/25 07:19:14;;;;;;;2.70;1.48;;;;;;;4.77;61.32;93988.06;4966798;28;20062;-92
2022/11/25 07:21:50;;;;;;;;;;;;;;;;;;;;;
2022/11/25 07:24:17;;;;;;;3.53;1.65;;;;;;;4.78;60.89;93988.84;4966895;28;20055;-92
2022/11/25 07:30:05;;;;;;;4.22;1.60;;;;;;;4.73;61.98;94002.09;4967102;29;20034;-92
2022/11/25 07:33:30;;;;;;;;;;;;;;;;;;;;;
2022/11/25 07:35:59;;;;;;;3.53;1.80;;;;;;;4.67;61.36;93998.69;4911247;28;20085;-93
2022/11/25 07:38:42;;;;;;;2.90;1.83;;;;;;;4.68;61.46;94005.56;4967821;28;20095;-94
2022/11/25 07:41:47;;;;;;;5.32;2.03;;;;;;;4.71;61.55;94006.88;4967524;28;20023;-95
2022/11/25 07:44:13;;;;;;;2.85;1.67;;;;;;;4.66;61.36;93998.97;4985042;28;20039;-89
2022/11/25 07:46:44;;;;;;;4.70;1.73;;;;;;;4.53;62.02;94006.41;4967032;28;20027;-90
2022/11/25 07:49:15;;;;;;;3.22;1.83;;;;;;;4.63;61.73;94009.00;4966557;28;20027;-92
2022/11/25 07:51:49;;;;;;;4.78;1.67;;;;;;;4.75;61.50;94010.53;4965607;28;20301;-90
2022/11/25 07:54:16;;;;;;;3.58;2.15;;;;;;;4.79;60.85;94014.22;4966573;28;20023;-92
2022/11/25 07:56:43;;;;;;;5.20;1.98;;;;;;;4.86;61.00;94024.47;4967369;28;20406;-87
2022/11/25 07:59:16;;;;;;;6.40;1.85;;;;;;;4.88;59.83;94017.06;4965866;28;20086;-87
2022/11/25 08:01:42;;;;;;;5.60;2.17;;;;;;;5.00;60.28;94033.38;4965688;28;20070;-88
2022/11/25 08:04:17;;;;;;;4.70;2.42;;;;;;;5.06;59.87;94018.28;4965817;28;20095;-90
2022/11/25 08:06:44;;;;;;;3.30;2.00;;;;;;;5.02;60.21;94024.09;4965446;28;20020;-87
2022/11/25 08:09:12;;;;;;;2.80;1.98;;;;;;;5.13;59.98;94038.06;4965585;28;20067;-87
2022/11/25 08:11:38;;;;;;;3.42;1.75;;;;;;;5.22;60.09;94044.31;4964479;28;20023;-89
2022/11/25 08:14:04;;;;;;;3.45;1.90;;;;;;;5.31;60.25;94035.81;4965607;28;20094;-85
2022/11/25 08:16:30;;;;;;;3.40;1.83;;;;;;;5.42;59.45;94037.31;4965349;28;20047;-90
2022/11/25 08:19:00;;;;;;;2.75;1.60;;;;;;;5.50;59.10;94038.59;4965003;28;20019;-84
2022/11/25 08:21:26;;;;;;;2.92;1.83;;;;;;;5.55;59.26;94041.19;4965242;28;20313;-86
2022/11/25 08:23:53;;;;;;;3.67;1.75;;;;;;;5.65;59.47;94042.97;4965285;28;20210;-86
2022/11/25 08:26:28;;;;;;;6.68;2.65;;;;;;;5.77;60.14;94048.69;4965034;28;20019;-86
2022/11/25 08:28:55;;;;;;;3.13;2.00;;;;;;;5.94;58.58;94050.91;4963296;28;20359;-85
2022/11/25 08:31:24;;;;;;;7.25;2.70;;;;;;;6.17;58.50;94046.75;4965129;28;20023;-86
2022/11/25 08:33:50;;;;;;;4.57;2.00;;;;;;;6.36;57.94;94057.41;4964709;28;20031;-86
2022/11/25 08:36:17;;;;;;;3.58;2.17;;;;;;;6.43;56.86;94068.44;4964888;28;20300;-87
2022/11/25 08:38:44;;;;;;;2.45;1.70;;;;;;;6.19;56.42;94053.34;4965051;28;20023;-88
2022/11/25 08:41:22;;;;;;;5.50;2.20;;;;;;;6.26;57.36;94052.22;4964767;28;20325;-86
2022/11/25 08:43:48;;;;;;;5.00;2.80;;;;;;;6.15;58.05;94047.03;4964850;28;20016;-87
2022/11/25 08:46:17;;;;;;;6.78;2.63;;;;;;;6.18;58.28;94045.69;4964998;28;20336;-88
2022/11/25 08:48:43;;;;;;;4.57;2.22;;;;;;;6.29;57.91;94046.34;4996249;28;20062;-89
2022/11/25 08:51:14;;;;;;;4.90;2.72;;;;;;;6.45;57.39;94073.47;4965091;28;20031;-83
2022/11/25 08:53:40;;;;;;;4.05;2.15;;;;;;;6.30;56.91;94048.72;4964579;28;20027;-89
2022/11/25 08:56:07;;;;;;;4.07;2.05;;;;;;;6.13;56.64;94062.41;4964752;28;20023;-80
2022/11/25 08:58:34;;;;;;;3.60;1.98;;;;;;;6.02;57.98;94052.97;4964531;28;20031;-78
2022/11/25 09:01:04;;;;;;;4.07;2.45;;;;;;;6.01;57.80;94048.78;4964470;28;20051;-77
2022/11/25 09:03:35;;;;;;;2.78;1.92;;;;;;;5.95;57.29;94039.31;4964548;28;20035;-77
2022/11/25 09:06:01;;;;;;;9.80;2.55;;;;;;;5.98;57.95;94052.78;4964339;28;20023;-77
2022/11/25 09:08:29;;;;;;;9.68;2.80;;;;;;;6.02;57.64;94045.84;4964348;28;20034;-78
2022/11/25 09:10:54;;;;;;;5.18;2.70;;;;;;;5.94;57.81;94050.91;4964350;28;20023;-77
2022/11/25 09:13:20;;;;;;;3.88;2.33;;;;;;;5.96;57.97;94052.25;4964348;28;20317;-77
2022/11/25 09:15:45;;;;;;;6.63;2.85;;;;;;;6.08;59.38;94056.38;4964140;28;20070;-77
2022/11/25 09:18:10;;;;;;;6.30;2.85;;;;;;;5.96;58.07;94043.50;4964338;28;20026;-77
2022/11/25 09:20:39;;;;;;;5.38;2.78;;;;;;;6.07;57.55;94055.59;4964071;28;20217;-77
2022/11/25 09:23:06;;;;;;;5.47;3.05;;;;;;;6.19;57.42;94060.50;4964512;28;20039;-77
2022/11/25 09:25:32;;;;;;;5.93;2.47;;;;;;;6.27;57.99;94053.78;4964289;28;20037;-77
2022/11/25 09:27:57;;;;;;;8.23;3.53;;;;;;;6.33;57.61;94050.03;4964075;28;20098;-77
2022/11/25 09:30:23;;;;;;;12.27;3.70;;;;;;;6.49;57.24;94040.84;4964057;28;20347;-77
2022/11/25 09:32:51;;;;;;;3.85;2.42;;;;;;;6.49;56.57;94075.25;4964039;28;20026;-76
2022/11/25 09:35:17;;;;;;;3.38;1.83;;;;;;;6.46;57.08;94089.06;4964183;28;20027;-76
2022/11/25 09:37:42;;;;;;;4.18;2.00;;;;;;;6.27;57.25;94053.78;4995116;28;20269;-77
2022/11/25 09:40:17;;;;;;;4.82;2.60;;;;;;;6.22;57.56;94044.84;4966590;28;20027;-79
2022/11/25 09:48:41;;;;;;;4.13;2.22;;;;;;;6.37;57.66;94048.38;4967860;28;20091;-77
2022/11/25 09:51:21;;;;;;;5.45;2.47;;;;;;;6.49;57.22;94045.34;4967716;28;20027;-76
2022/11/25 09:53:52;;;;;;;4.65;2.30;;;;;;;6.52;56.35;94050.88;4967765;28;20030;-78
2022/11/25 09:56:27;;;;;;;4.90;2.17;;;;;;;6.52;56.44;94040.28;4967701;28;20019;-81
2022/11/25 09:59:19;;;;;;;15.00;2.88;;;;;;;6.51;56.86;94062.53;4998659;28;20101;-77
2022/11/25 10:01:57;;;;;;;5.03;2.65;;;;;;;6.58;56.94;94081.53;4960353;28;20031;-81
2022/11/25 10:04:29;;;;;;;6.32;2.38;;;;;;;6.58;55.91;94060.34;4967555;28;20031;-79
2022/11/25 10:06:59;;;;;;;4.63;2.17;;;;;;;6.74;56.05;94065.47;4967164;28;20027;-78
2022/11/25 10:09:28;;;;;;;4.22;2.22;;;;;;;6.79;55.90;94060.09;4967168;28;20019;-77
2022/11/25 10:12:10;;;;;;;3.15;2.00;;;;;;;6.79;56.13;94049.50;4967201;28;20102;-76
2022/11/25 10:14:41;;;;;;;5.32;2.53;;;;;;;6.86;56.20;94057.91;4967211;28;20380;-78
2022/11/25 10:17:09;;;;;;;3.45;1.73;;;;;;;6.83;55.41;94063.75;4966416;28;20035;-85
2022/11/25 10:19:53;;;;;;;4.45;1.90;;;;;;;6.76;55.18;94061.47;4965586;28;20035;-76
2022/11/25 10:22:21;;;;;;;4.35;2.05;;;;;;;6.67;55.58;94063.16;4965179;28;20034;-75
2022/11/25 10:24:48;;;;;;;4.18;2.15;;;;;;;6.65;55.54;94056.56;4965352;28;20031;-76
2022/11/25 10:27:21;;;;;;;5.85;1.90;;;;;;;6.73;55.60;94053.28;4965217;28;20094;-76
2022/11/25 10:30:19;;;;;;;3.33;1.70;;;;;;;6.79;55.27;94065.41;4965320;28;20339;-74
2022/11/25 10:32:51;;;;;;;3.25;1.95;;;;;;;6.90;55.20;94058.91;4963495;28;20062;-76
2022/11/25 10:35:29;;;;;;;3.83;1.77;;;;;;;7.10;55.15;94065.00;4966933;28;20110;-75
2022/11/25 10:37:58;;;;;;;4.38;1.75;;;;;;;7.11;53.54;94066.59;4967017;28;20098;-75
2022/11/25 10:40:24;;;;;;;3.95;1.67;;;;;;;6.86;54.95;94065.84;4966745;28;20031;-75
2022/11/25 10:42:49;;;;;;;3.42;1.60;;;;;;;6.66;55.53;94064.22;4966658;28;20037;-77
2022/11/25 10:45:15;;;;;;;4.88;1.92;;;;;;;6.64;55.66;94058.44;4966584;28;20368;-75
2022/11/25 10:47:49;;;;;;;3.75;1.83;;;;;;;6.53;55.46;94089.50;4965460;28;20031;-75
2022/11/25 10:50:24;;;;;;;2.90;1.30;;;;;;;6.45;55.47;94065.53;4964894;28;20113;-77
2022/11/25 10:53:00;;;;;;;3.65;1.80;;;;;;;6.39;55.23;94075.38;4964753;28;20317;-77
2022/11/25 10:55:32;;;;;;;5.32;1.75;;;;;;;6.38;55.50;94064.00;4995820;28;20031;-75
2022/11/25 10:57:59;;;;;;;3.42;1.25;;;;;;;6.46;54.85;94081.13;4995718;28;20026;-75
2022/11/25 11:00:37;;;;;;;3.38;1.67;;;;;;;6.56;54.77;94080.25;4964584;28;20032;-75
2022/11/25 11:03:23;;;;;;;3.42;2.13;;;;;;;6.44;55.10;94080.63;4965783;28;20317;-75
2022/11/25 11:05:52;;;;;;;3.45;1.52;;;;;;;6.50;55.17;94076.84;4966159;28;20030;-75
2022/11/25 11:08:39;;;;;;;2.47;1.27;;;;;;;6.57;55.54;94074.66;4966203;28;20026;-75
2022/11/25 11:11:17;;;;;;;5.03;1.73;;;;;;;6.50;56.02;94084.00;4966568;28;20015;-75
2022/11/25 11:13:43;;;;;;;7.35;1.85;;;;;;;6.31;56.11;94097.16;4966063;28;20265;-77
2022/11/25 11:16:36;;;;;;;5.78;1.77;;;;;;;6.15;57.41;94068.22;4965868;28;20046;-75
2022/11/25 11:19:02;;;;;;;4.13;2.17;;;;;;;6.15;57.39;94081.44;4964329;28;20050;-75
2022/11/25 11:21:33;;;;;;;2.40;1.83;;;;;;;6.13;58.17;94088.88;4966163;28;20094;-77
2022/11/25 11:23:59;;;;;;;3.30;1.95;;;;;;;6.03;58.79;94096.91;4965904;28;20043;-75
2022/11/25 11:26:35;;;;;;;6.03;3.05;;;;;;;6.06;58.34;94091.03;4965977;28;20035;-77
2022/11/25 11:29:03;;;;;;;4.15;2.25;;;;;;;5.90;58.78;94102.78;4997338;28;20202;-77
2022/11/25 11:31:38;;;;;;;5.00;2.40;;;;;;;5.88;59.49;94091.69;4965829;28;20245;-77
2022/11/25 11:34:21;;;;;;;3.60;2.25;;;;;;;6.01;59.72;94101.69;4965980;28;20050;-75
2022/11/25 11:36:59;;;;;;;4.30;2.17;;;;;;;6.01;59.18;94099.03;4965699;28;20038;-77
2022/11/25 11:39:25;;;;;;;3.83;1.80;;;;;;;6.02;59.16;94095.31;4965781;28;20047;-78
2022/11/25 11:41:59;;;;;;;4.80;2.30;;;;;;;5.91;59.40;94105.16;4965682;28;20027;-78
2022/11/25 11:45:00;;;;;;;4.53;2.10;;;;;;;5.96;59.97;94101.72;4965706;28;20321;-75
2022/11/25 11:47:31;;;;;;;4.22;2.20;;;;;;;5.82;60.31;94104.97;4960032;28;20038;-77
2022/11/25 11:50:20;;;;;;;3.83;1.98;;;;;;;5.77;60.69;94109.50;4965558;28;20212;-77
2022/11/25 11:53:00;;;;;;;3.50;2.03;;;;;;;5.72;60.85;94102.41;4965601;28;20030;-77
2022/11/25 11:55:54;;;;;;;5.53;2.47;;;;;;;5.60;61.50;94107.28;4965625;28;20031;-77
2022/11/25 11:58:51;;;;;;;7.88;1.80;;;;;;;5.59;61.26;94097.75;4960447;28;20082;-77
2022/11/25 12:01:47;;;;;;;7.10;2.13;;;;;;;5.55;60.63;94086.13;4996512;28;20337;-77
2022/11/25 12:04:35;;;;;;;6.10;2.20;;;;;;;5.56;59.97;94096.44;4964254;28;20369;-76
2022/11/25 12:07:31;;;;;;;6.18;2.10;;;;;;;5.53;60.29;94088.25;4965250;28;20283;-80
2022/11/25 12:10:20;;;;;;;4.50;2.72;;;;;;;5.38;60.78;94095.25;4965376;28;20023;-83
2022/11/25 12:13:04;;;;;;;5.35;2.40;;;;;;;5.38;61.24;94092.59;4964577;28;20043;-79
2022/11/25 12:15:52;;;;;;;3.88;2.42;;;;;;;5.38;60.67;94092.59;4964958;28;20063;-74
2022/11/25 12:18:34;;;;;;;5.68;2.83;;;;;;;5.36;60.96;94105.28;4965204;28;20046;-75
2022/11/25 12:21:06;;;;;;;6.10;3.03;;;;;;;5.41;61.64;94094.69;4964747;28;20115;-75
2022/11/25 12:23:37;;;;;;;;;;;;;;;5.42;61.23;94101.56;4965578;28;20102;-76
2022/11/25 12:26:12;;;;;;;3.78;1.88;;;;;;;5.42;61.63;94098.91;4965035;28;19907;-76
2022/11/25 12:28:46;;;;;;;4.65;2.40;;;;;;;5.36;60.85;94105.28;4964569;28;20023;-76
2022/11/25 12:31:17;;;;;;;7.28;3.20;;;;;;;5.37;60.61;94085.75;4964947;28;20027;-76
2022/11/25 12:33:48;;;;;;;4.17;2.67;;;;;;;5.32;60.23;94109.56;4964811;28;20038;-75
2022/11/25 12:36:36;;;;;;;8.10;2.47;;;;;;;5.28;60.10;94079.44;4963545;28;20275;-76
2022/11/25 12:39:18;;;;;;;5.32;2.55;;;;;;;5.31;60.08;94086.84;4964544;28;20027;-74
2022/11/25 12:41:51;;;;;;;7.07;2.47;;;;;;;5.24;60.19;94096.91;4964761;28;20221;-72
2022/11/25 12:44:42;;;;;;;3.75;2.22;;;;;;;5.20;60.81;94085.31;4964824;28;20167;-74
2022/11/25 12:47:10;;;;;;;4.13;2.60;;;;;;;5.24;60.68;94083.69;4964919;28;20042;-75
2022/11/25 12:49:44;;;;;;;4.80;2.70;;;;;;;5.18;60.80;94066.28;4964838;28;20237;-75
2022/11/25 12:52:40;;;;;;;4.57;2.83;;;;;;;5.22;61.57;94083.97;4964347;28;20234;-75
2022/11/25 12:55:17;;;;;;;4.88;2.75;;;;;;;5.22;61.05;94081.31;4964724;28;20309;-78
2022/11/25 12:58:16;;;;;;;6.45;3.25;;;;;;;5.18;61.57;94082.16;4995774;28;20073;-80
2022/11/25 13:01:13;;;;;;;5.47;2.47;;;;;;;5.08;61.48;94077.72;4964328;28;20045;-79
2022/11/25 13:04:10;;;;;;;5.90;3.38;;;;;;;5.15;61.46;94083.50;4964337;28;20038;-79
2022/11/25 13:06:56;;;;;;;5.30;2.53;;;;;;;5.07;61.33;94068.22;4964671;28;20102;-77
2022/11/25 13:09:40;;;;;;;3.88;1.95;;;;;;;5.09;61.67;94054.72;4964485;28;20047;-78
2022/11/25 13:12:37;;;;;;;4.35;2.90;;;;;;;5.15;61.33;94066.81;4964565;28;20102;-77
2022/11/25 13:15:29;;;;;;;7.30;2.95;;;;;;;5.16;61.66;94060.50;4966730;28;20217;-78
2022/11/25 13:18:08;;;;;;;4.32;2.53;;;;;;;5.17;61.19;94070.78;4968515;28;20034;-79